Time;durP1;ratioP1;P1;durP2;ratioP2;P2;SDS_P1;SDS_P2;PMS_P1;PMS_P2;Temp;Humidity;BMP_temperature;BMP_pressure;BME280_temperature;BME280_humidity;BME280_pressure;Samples;Min_cycle;Max_cycle;Signal;HPM_P1;HPM_P2
2023/02/20 00:00:33;;;;;;;2.67;1.52;;;6.10;99.90;;;;;;8237380;28;20031;-79
2023/02/20 00:04:33;;;;;;;4.70;1.23;;;6.20;99.90;;;;;;8229725;28;20022;-79
2023/02/20 00:08:34;;;;;;;4.72;1.58;;;6.00;99.90;;;;;;8250332;28;20419;-79
2023/02/20 00:12:35;;;;;;;2.40;1.38;;;5.90;99.90;;;;;;8223630;28;20025;-79
2023/02/20 00:16:35;;;;;;;3.15;1.52;;;5.90;99.90;;;;;;8216876;28;20023;-79
2023/02/20 00:20:36;;;;;;;2.60;1.40;;;5.90;99.90;;;;;;8234325;28;20518;-79
2023/02/20 00:24:37;;;;;;;2.67;1.30;;;5.80;99.90;;;;;;8220354;28;20113;-79
2023/02/20 00:28:39;;;;;;;3.05;1.48;;;6.10;99.90;;;;;;8225743;28;20030;-79
2023/02/20 00:32:39;;;;;;;3.15;1.77;;;6.00;99.90;;;;;;8246341;28;20018;-78
2023/02/20 00:36:40;;;;;;;4.53;1.50;;;6.20;99.90;;;;;;8230212;28;20031;-78
2023/02/20 00:40:40;;;;;;;3.67;1.52;;;6.10;99.90;;;;;;8240734;28;20038;-79
2023/02/20 00:44:41;;;;;;;6.78;1.65;;;6.00;99.90;;;;;;8233922;28;20252;-78
2023/02/20 00:48:41;;;;;;;5.20;1.58;;;6.40;99.90;;;;;;8217461;28;20395;-79
2023/02/20 00:52:43;;;;;;;4.00;1.30;;;6.20;99.90;;;;;;8225092;28;20057;-80
2023/02/20 00:56:44;;;;;;;4.00;1.70;;;6.20;99.90;;;;;;8235065;28;20387;-79
2023/02/20 01:00:44;;;;;;;4.50;1.60;;;6.10;99.90;;;;;;8234166;28;20459;-79
2023/02/20 01:04:45;;;;;;;4.68;2.15;;;6.10;99.90;;;;;;8230013;28;20026;-79
2023/02/20 01:08:45;;;;;;;5.18;1.70;;;6.00;99.90;;;;;;8244350;28;20475;-79
2023/02/20 01:12:46;;;;;;;5.28;1.63;;;6.10;99.90;;;;;;8233649;28;20023;-79
2023/02/20 01:16:50;;;;;;;3.78;1.40;;;6.30;99.90;;;;;;8234634;28;20026;-80
2023/02/20 01:20:50;;;;;;;2.60;1.50;;;6.30;99.90;;;;;;8218310;28;20023;-79
2023/02/20 01:24:51;;;;;;;3.17;1.80;;;6.40;99.90;;;;;;8222317;28;20035;-79
2023/02/20 01:28:51;;;;;;;3.13;1.42;;;6.40;99.90;;;;;;8234370;28;20061;-80
2023/02/20 01:32:52;;;;;;;2.13;1.33;;;6.30;99.90;;;;;;8215870;28;20041;-80
2023/02/20 01:36:54;;;;;;;4.32;1.65;;;6.40;99.90;;;;;;8220486;28;20113;-80
2023/02/20 01:40:54;;;;;;;2.60;1.35;;;6.40;99.90;;;;;;8221201;28;20110;-80
2023/02/20 01:45:22;;;;;;;3.70;1.77;;;6.20;99.90;;;;;;8216981;28;20026;-79
2023/02/20 01:49:37;;;;;;;2.17;1.27;;;6.30;99.90;;;;;;8223648;28;20033;-80
2023/02/20 01:53:38;;;;;;;2.80;1.17;;;6.30;99.90;;;;;;8218915;28;20041;-80
2023/02/20 01:57:41;;;;;;;4.20;1.85;;;6.20;99.90;;;;;;8252821;28;20034;-79
2023/02/20 02:01:42;;;;;;;3.45;1.60;;;6.20;99.90;;;;;;8234507;28;20496;-80
2023/02/20 02:05:47;;;;;;;2.63;1.50;;;6.30;99.90;;;;;;8220755;28;20034;-79
2023/02/20 02:09:59;;;;;;;4.57;1.63;;;6.40;99.90;;;;;;8249026;28;20049;-78
2023/02/20 02:14:00;;;;;;;2.17;1.48;;;6.30;99.90;;;;;;8231124;28;20019;-79
2023/02/20 02:18:13;;;;;;;2.30;1.73;;;6.30;99.90;;;;;;8212380;28;20465;-79
2023/02/20 02:22:31;;;;;;;4.18;1.40;;;6.20;99.90;;;;;;8233862;28;20034;-79
2023/02/20 02:26:50;;;;;;;3.95;1.73;;;6.10;99.90;;;;;;8257446;28;20094;-79
2023/02/20 02:31:10;;;;;;;3.88;1.70;;;6.00;99.90;;;;;;8237963;28;20035;-79
2023/02/20 02:35:48;;;;;;;3.60;1.83;;;6.00;99.90;;;;;;8244710;28;20037;-81
2023/02/20 02:40:26;;;;;;;2.25;1.35;;;5.90;99.90;;;;;;8255399;28;20027;-80
2023/02/20 02:44:33;;;;;;;3.85;1.75;;;5.90;99.90;;;;;;8225517;28;20045;-81
2023/02/20 02:48:40;;;;;;;2.78;1.50;;;5.60;99.90;;;;;;8226652;28;20040;-81
2023/02/20 02:52:47;;;;;;;2.60;1.70;;;5.60;99.90;;;;;;8239150;28;20457;-81
2023/02/20 02:56:48;;;;;;;2.72;1.52;;;5.70;99.90;;;;;;8240693;28;20030;-81
2023/02/20 03:00:54;;;;;;;1.95;1.48;;;5.50;99.90;;;;;;8239344;28;20029;-80
2023/02/20 03:04:57;;;;;;;3.35;1.60;;;5.40;99.90;;;;;;8259002;28;20025;-80
2023/02/20 03:09:20;;;;;;;3.10;1.70;;;5.30;99.90;;;;;;8251077;28;20102;-80
2023/02/20 03:18:09;;;;;;;3.33;1.70;;;5.00;99.90;;;;;;8242403;28;20049;-81
2023/02/20 03:22:31;;;;;;;3.10;1.67;;;4.70;99.90;;;;;;8222332;28;20031;-80
2023/02/20 03:26:34;;;;;;;2.22;1.50;;;4.60;99.90;;;;;;8246636;28;20031;-80
2023/02/20 03:30:59;;;;;;;5.40;1.92;;;4.90;99.90;;;;;;8253228;28;20033;-80
2023/02/20 03:43:50;;;;;;;4.63;1.85;;;4.60;99.90;;;;;;8241959;28;20153;-79
2023/02/20 03:47:53;;;;;;;3.22;1.85;;;4.60;99.90;;;;;;8238315;28;20465;-80
2023/02/20 03:51:54;;;;;;;4.43;1.80;;;4.50;99.90;;;;;;8237495;28;20052;-80
2023/02/20 03:55:58;;;;;;;4.78;2.22;;;4.20;99.90;;;;;;8249760;28;20033;-81
2023/02/20 04:00:04;;;;;;;2.92;1.75;;;4.30;99.90;;;;;;8225786;28;20027;-80
2023/02/20 04:04:06;;;;;;;7.50;2.38;;;4.30;99.90;;;;;;8248278;28;20030;-80
2023/02/20 04:08:13;;;;;;;3.53;1.80;;;4.20;99.90;;;;;;8249922;28;20058;-80
2023/02/20 04:12:16;;;;;;;4.07;1.83;;;4.10;99.90;;;;;;8225319;28;20018;-80
2023/02/20 04:16:17;;;;;;;5.18;2.10;;;4.30;99.90;;;;;;8240908;28;20066;-80
2023/02/20 04:20:18;;;;;;;3.35;1.70;;;4.30;99.90;;;;;;8237596;28;20026;-81
2023/02/20 04:24:31;;;;;;;2.70;1.58;;;4.20;99.90;;;;;;8224653;28;20518;-80
2023/02/20 04:28:32;;;;;;;3.47;2.10;;;4.20;99.90;;;;;;8249458;28;20035;-80
2023/02/20 04:32:33;;;;;;;2.30;1.67;;;4.00;99.90;;;;;;8222712;28;20026;-80
2023/02/20 04:36:33;;;;;;;4.57;1.80;;;4.00;99.90;;;;;;8232654;28;20094;-80
2023/02/20 04:40:34;;;;;;;3.30;1.88;;;3.90;99.90;;;;;;8228211;28;20027;-81
2023/02/20 04:44:35;;;;;;;2.78;1.45;;;4.00;99.90;;;;;;8232119;28;20113;-80
2023/02/20 04:48:36;;;;;;;3.70;1.90;;;3.90;99.90;;;;;;8224493;28;20026;-81
2023/02/20 04:52:37;;;;;;;5.07;2.05;;;3.70;99.90;;;;;;8241779;28;20388;-80
2023/02/20 04:56:37;;;;;;;7.13;2.45;;;3.60;99.90;;;;;;8224263;28;20023;-80
2023/02/20 05:00:38;;;;;;;8.25;1.73;;;3.70;99.90;;;;;;8223482;28;20030;-81
2023/02/20 05:04:39;;;;;;;4.20;2.30;;;3.70;99.90;;;;;;8226601;28;20046;-80
2023/02/20 05:08:39;;;;;;;5.30;2.20;;;3.80;99.90;;;;;;8225423;28;20108;-81
2023/02/20 05:12:40;;;;;;;8.38;2.78;;;3.50;99.90;;;;;;8225437;28;20058;-80
2023/02/20 05:16:41;;;;;;;4.30;1.90;;;3.40;99.90;;;;;;8225429;28;20094;-80
2023/02/20 05:25:01;;;;;;;6.47;2.28;;;3.00;99.90;;;;;;8254583;28;20029;-80
2023/02/20 05:29:02;;;;;;;4.18;1.90;;;3.10;99.90;;;;;;8238005;28;20485;-80
2023/02/20 05:33:02;;;;;;;4.72;1.98;;;2.80;99.90;;;;;;8228137;28;20054;-80
2023/02/20 05:37:03;;;;;;;4.80;2.30;;;2.60;99.90;;;;;;8228234;28;20687;-80
2023/02/20 05:41:03;;;;;;;4.72;1.83;;;2.50;99.90;;;;;;8229272;28;20554;-80
2023/02/20 05:45:04;;;;;;;4.25;2.28;;;2.50;99.90;;;;;;8253689;28;20129;-80
2023/02/20 05:49:05;;;;;;;6.40;2.38;;;2.70;99.90;;;;;;8236090;28;20027;-80
2023/02/20 05:53:06;;;;;;;3.90;2.15;;;2.70;99.90;;;;;;8234841;28;20027;-80
2023/02/20 05:57:10;;;;;;;3.30;1.50;;;2.60;99.90;;;;;;8237778;28;20034;-80
2023/02/20 06:01:19;;;;;;;3.53;2.00;;;2.50;99.90;;;;;;8261145;28;20022;-80
2023/02/20 06:05:19;;;;;;;3.13;2.27;;;2.80;99.90;;;;;;8234897;28;20018;-80
2023/02/20 06:09:20;;;;;;;5.60;2.30;;;3.00;99.90;;;;;;8231244;28;20019;-80
2023/02/20 06:13:20;;;;;;;5.90;2.38;;;3.10;99.90;;;;;;8233326;28;20030;-79
2023/02/20 06:17:21;;;;;;;4.70;2.10;;;3.10;99.90;;;;;;8243921;28;20027;-80
2023/02/20 06:21:23;;;;;;;5.30;2.33;;;3.10;99.90;;;;;;8229718;28;20575;-79
2023/02/20 06:25:24;;;;;;;3.60;2.05;;;3.10;99.90;;;;;;8232552;28;20390;-78
2023/02/20 06:29:24;;;;;;;4.78;2.15;;;2.80;99.90;;;;;;8234493;28;20109;-79
2023/02/20 06:33:25;;;;;;;5.13;2.00;;;2.80;99.90;;;;;;8230799;28;20018;-79
2023/02/20 06:37:25;;;;;;;8.23;2.95;;;2.70;99.90;;;;;;8234196;28;20030;-79
2023/02/20 06:41:26;;;;;;;4.15;2.20;;;3.00;99.90;;;;;;8226869;28;20031;-79
2023/02/20 06:45:27;;;;;;;6.47;2.58;;;3.20;99.90;;;;;;8230933;28;20015;-79
2023/02/20 06:49:27;;;;;;;7.32;3.20;;;3.40;99.90;;;;;;8224699;28;20023;-79
2023/02/20 06:53:28;;;;;;;6.85;3.30;;;3.30;99.90;;;;;;8227652;28;20064;-79
2023/02/20 06:57:31;;;;;;;3.58;2.65;;;3.40;99.90;;;;;;8241299;28;20451;-79
2023/02/20 07:01:39;;;;;;;8.23;3.30;;;3.40;99.90;;;;;;8221950;28;20026;-79
2023/02/20 07:05:40;;;;;;;7.07;2.95;;;3.40;99.90;;;;;;8218753;28;20023;-79
2023/02/20 07:09:40;;;;;;;8.55;3.60;;;3.50;99.90;;;;;;8241757;28;20113;-79
2023/02/20 07:13:41;;;;;;;6.47;3.10;;;3.80;99.90;;;;;;8237642;28;20023;-79
2023/02/20 07:17:41;;;;;;;4.43;2.55;;;4.00;99.90;;;;;;8229338;28;20054;-79
2023/02/20 07:21:44;;;;;;;5.53;3.10;;;4.00;99.90;;;;;;8223837;28;20060;-78
2023/02/20 07:25:46;;;;;;;5.00;2.35;;;4.10;99.90;;;;;;8234230;28;20587;-79
2023/02/20 07:29:49;;;;;;;7.15;3.00;;;4.30;99.90;;;;;;8233469;28;20395;-79
2023/02/20 07:33:50;;;;;;;3.65;2.33;;;4.40;99.90;;;;;;8237639;28;20034;-79
2023/02/20 07:37:50;;;;;;;4.60;2.45;;;4.70;99.90;;;;;;8229257;28;20026;-78
2023/02/20 07:41:51;;;;;;;5.97;2.88;;;4.80;99.90;;;;;;8220647;28;20227;-78
2023/02/20 07:45:51;;;;;;;7.03;2.45;;;4.90;99.90;;;;;;8224564;28;20484;-79
2023/02/20 07:49:52;;;;;;;5.85;2.67;;;5.00;99.90;;;;;;8217995;28;20041;-79
2023/02/20 07:53:53;;;;;;;3.15;2.22;;;5.30;99.90;;;;;;8225772;28;20026;-79
2023/02/20 07:57:56;;;;;;;5.95;2.63;;;5.50;99.90;;;;;;8223917;28;20057;-79
2023/02/20 08:01:57;;;;;;;8.40;2.55;;;5.80;99.90;;;;;;8216370;28;20061;-79
2023/02/20 08:05:58;;;;;;;5.53;2.85;;;5.90;99.90;;;;;;8249173;28;20484;-79
2023/02/20 08:09:58;;;;;;;5.05;2.35;;;6.10;99.90;;;;;;8227422;28;20117;-79
2023/02/20 08:13:59;;;;;;;5.00;2.22;;;6.20;99.90;;;;;;8223975;28;20050;-79
2023/02/20 08:17:59;;;;;;;6.45;2.95;;;6.30;99.90;;;;;;8219331;28;20093;-79
2023/02/20 08:22:00;;;;;;;6.90;2.88;;;6.50;99.90;;;;;;8224137;28;20030;-79
2023/02/20 08:26:03;;;;;;;8.70;3.80;;;6.80;99.90;;;;;;8242236;28;20037;-79
2023/02/20 08:30:06;;;;;;;8.40;3.22;;;6.90;99.90;;;;;;8238484;28;20019;-80
2023/02/20 08:34:07;;;;;;;11.05;5.25;;;7.30;99.90;;;;;;8220880;28;20649;-80
2023/02/20 08:38:23;;;;;;;20.70;10.25;;;7.30;99.90;;;;;;8222517;28;20046;-79
2023/02/20 08:42:23;;;;;;;11.75;6.38;;;7.40;99.90;;;;;;8222550;28;20059;-80
2023/02/20 08:46:24;;;;;;;6.70;2.28;;;7.50;99.90;;;;;;8236355;28;20158;-80
2023/02/20 08:50:24;;;;;;;3.25;1.77;;;7.60;99.90;;;;;;8217621;28;20027;-79
2023/02/20 08:54:25;;;;;;;9.65;2.45;;;7.90;99.90;;;;;;8236907;28;20033;-78
2023/02/20 08:58:26;;;;;;;3.72;2.08;;;8.00;99.90;;;;;;8252452;28;20106;-80
2023/02/20 09:02:28;;;;;;;4.25;2.60;;;8.10;99.90;;;;;;8212583;28;20669;-80
2023/02/20 09:06:29;;;;;;;4.47;2.50;;;8.20;99.90;;;;;;8217345;28;20030;-80
2023/02/20 09:10:30;;;;;;;5.50;2.58;;;8.20;99.90;;;;;;8241276;28;20058;-79
2023/02/20 09:14:30;;;;;;;3.58;2.38;;;8.40;99.90;;;;;;8241615;28;20093;-80
2023/02/20 09:18:32;;;;;;;9.30;2.55;;;8.60;99.90;;;;;;8235474;28;20023;-80
2023/02/20 09:26:56;;;;;;;3.53;1.75;;;9.00;99.90;;;;;;8668949;23;20051;-78
2023/02/20 09:30:59;;;;;;;3.10;1.90;;;9.30;99.90;;;;;;8206908;28;20030;-78
2023/02/20 09:34:59;;;;;;;4.50;2.42;;;9.50;99.90;;;;;;8194069;28;20031;-79
2023/02/20 09:39:00;;;;;;;7.72;2.13;;;9.70;99.90;;;;;;8194160;29;20023;-79
2023/02/20 09:43:29;;;;;;;2.88;2.10;;;10.30;99.90;;;;;;8191471;29;20039;-80
2023/02/20 09:48:12;;;;;;;5.40;2.38;;;10.60;99.90;;;;;;8189743;29;20484;-78
2023/02/20 09:52:16;;;;;;;3.50;2.05;;;11.00;99.90;;;;;;8188860;28;20023;-80
2023/02/20 09:56:21;;;;;;;1.73;1.27;;;11.30;99.90;;;;;;8197742;28;20031;-79
2023/02/20 10:00:32;;;;;;;4.82;1.92;;;11.50;99.90;;;;;;8193771;29;20066;-78
2023/02/20 10:04:38;;;;;;;6.22;1.67;;;11.60;99.90;;;;;;8186541;28;20032;-80
2023/02/20 10:08:38;;;;;;;3.30;1.85;;;11.70;99.90;;;;;;8202395;28;20034;-79
2023/02/20 10:12:55;;;;;;;5.03;2.30;;;11.70;99.90;;;;;;8190832;28;20034;-80
2023/02/20 10:17:26;;;;;;;4.40;2.20;;;12.00;99.90;;;;;;8182702;29;20027;-79
2023/02/20 10:22:03;;;;;;;4.47;2.10;;;12.30;99.90;;;;;;8192059;29;20027;-77
2023/02/20 10:26:09;;;;;;;3.67;2.08;;;12.80;99.90;;;;;;8164055;28;20044;-78
2023/02/20 10:30:14;;;;;;;4.68;2.17;;;13.40;99.90;;;;;;8185271;28;20878;-79
2023/02/20 10:34:24;;;;;;;3.63;2.20;;;13.70;99.90;;;;;;8186638;29;20407;-78
2023/02/20 10:38:29;;;;;;;6.13;2.23;;;14.10;99.90;;;;;;8184391;29;20036;-79
2023/02/20 10:42:37;;;;;;;4.07;2.00;;;14.00;99.90;;;;;;8182275;28;20556;-79
2023/02/20 10:46:54;;;;;;;5.72;2.33;;;13.30;99.90;;;;;;8187497;29;20464;-80
2023/02/20 10:51:07;;;;;;;8.02;2.70;;;12.80;99.90;;;;;;8185687;29;20062;-79
2023/02/20 10:55:17;;;;;;;3.28;2.08;;;12.90;99.90;;;;;;8188851;29;20114;-80
2023/02/20 10:59:28;;;;;;;3.75;2.15;;;13.20;99.90;;;;;;8192471;28;20492;-80
2023/02/20 11:03:46;;;;;;;3.78;2.25;;;13.80;99.90;;;;;;8193654;28;20039;-80
2023/02/20 11:07:48;;;;;;;5.70;2.50;;;13.80;99.90;;;;;;8201007;29;20110;-81
2023/02/20 11:11:48;;;;;;;4.07;2.03;;;14.00;99.90;;;;;;8190079;28;20109;-80
2023/02/20 11:15:52;;;;;;;6.95;2.42;;;14.60;99.90;;;;;;8194529;28;20038;-80
2023/02/20 11:20:00;;;;;;;3.78;2.30;;;15.30;99.90;;;;;;8200314;29;20517;-80
2023/02/20 11:24:16;;;;;;;4.43;2.22;;;15.60;99.90;;;;;;8198898;28;20102;-80
2023/02/20 11:28:25;;;;;;;4.03;2.42;;;16.20;99.90;;;;;;8182381;28;20031;-78
2023/02/20 11:32:30;;;;;;;3.75;2.42;;;16.10;99.90;;;;;;8194711;28;20214;-78
2023/02/20 11:36:38;;;;;;;2.45;1.92;;;16.30;99.90;;;;;;8215505;29;20027;-80
2023/02/20 11:40:38;;;;;;;3.85;2.10;;;16.50;99.90;;;;;;8203200;28;20032;-79
2023/02/20 11:44:39;;;;;;;2.95;1.98;;;17.70;99.90;;;;;;8198381;28;20023;-80
2023/02/20 11:49:05;;;;;;;4.03;1.95;;;17.90;99.90;;;;;;8199548;29;20027;-79
2023/02/20 11:53:06;;;;;;;3.28;1.70;;;18.20;99.90;;;;;;8195746;29;20078;-80
2023/02/20 11:57:29;;;;;;;4.40;2.03;;;18.10;99.90;;;;;;8198152;28;20058;-80
2023/02/20 12:01:32;;;;;;;3.22;1.65;;;17.10;99.90;;;;;;8190151;28;21559;-80
2023/02/20 12:05:56;;;;;;;4.10;1.65;;;15.90;99.90;;;;;;8187731;29;20031;-80
2023/02/20 12:10:05;;;;;;;3.03;1.83;;;16.00;99.90;;;;;;8186100;29;20078;-80
2023/02/20 12:14:13;;;;;;;2.67;1.85;;;16.80;99.90;;;;;;8202999;23;20071;-82
2023/02/20 12:18:31;;;;;;;3.22;1.60;;;18.40;99.90;;;;;;8165160;29;20048;-80
2023/02/20 12:22:37;;;;;;;4.07;1.92;;;19.20;99.80;;;;;;8165919;29;20028;-80
2023/02/20 12:26:59;;;;;;;2.30;1.60;;;19.70;97.30;;;;;;8154491;29;20023;-81
2023/02/20 12:31:18;;;;;;;3.00;1.80;;;19.90;96.40;;;;;;8153796;29;20028;-81
2023/02/20 12:35:24;;;;;;;2.42;1.48;;;;;;;;;;8147450;29;20456;-80
2023/02/20 12:39:55;;;;;;;2.88;1.50;;;20.40;94.40;;;;;;8162692;29;20399;-80
2023/02/20 12:44:01;;;;;;;2.90;1.48;;;20.50;92.90;;;;;;8152748;29;20537;-80
2023/02/20 12:48:39;;;;;;;2.58;1.55;;;20.60;91.50;;;;;;8149302;29;20092;-80
2023/02/20 12:53:18;;;;;;;2.17;1.50;;;20.40;91.20;;;;;;8150797;29;20028;-80
2023/02/20 12:57:36;;;;;;;2.55;1.75;;;17.40;95.00;;;;;;8148446;29;20028;-80
2023/02/20 13:01:37;;;;;;;2.22;1.40;;;15.70;99.10;;;;;;8152416;29;20032;-79
2023/02/20 13:05:43;;;;;;;3.08;1.73;;;15.00;99.70;;;;;;8161825;29;20493;-80
2023/02/20 13:10:01;;;;;;;1.67;1.23;;;14.50;99.90;;;;;;8166575;29;20112;-81
2023/02/20 13:14:14;;;;;;;4.55;1.70;;;14.20;99.90;;;;;;8159439;29;20085;-81
2023/02/20 13:18:28;;;;;;;2.35;1.40;;;14.10;99.90;;;;;;8167240;29;20036;-81
2023/02/20 13:22:29;;;;;;;2.63;1.45;;;14.10;99.90;;;;;;8165497;29;20019;-81
2023/02/20 13:26:32;;;;;;;2.00;1.38;;;14.00;99.90;;;;;;8169255;29;20108;-81
2023/02/20 13:30:33;;;;;;;3.00;1.58;;;13.90;99.90;;;;;;8179110;29;20070;-81
2023/02/20 13:34:38;;;;;;;4.25;1.50;;;13.90;99.90;;;;;;8172258;28;20041;-81
2023/02/20 13:38:39;;;;;;;2.38;1.45;;;13.90;99.90;;;;;;8161696;29;20115;-81
2023/02/20 13:42:40;;;;;;;3.15;1.40;;;13.90;99.90;;;;;;8174346;29;20038;-82
2023/02/20 13:47:01;;;;;;;4.18;1.40;;;13.70;99.90;;;;;;8169624;29;20020;-81
2023/02/20 13:51:14;;;;;;;2.40;1.60;;;13.80;99.90;;;;;;8164575;29;20107;-81
2023/02/20 13:55:21;;;;;;;4.38;1.63;;;13.60;99.90;;;;;;8175668;29;20028;-82
2023/02/20 13:59:22;;;;;;;3.92;1.80;;;13.70;99.90;;;;;;8172533;29;20066;-81
2023/02/20 14:03:27;;;;;;;3.05;1.70;;;13.80;99.90;;;;;;8167007;29;20432;-81
2023/02/20 14:07:36;;;;;;;5.05;1.70;;;13.80;99.90;;;;;;8166448;29;20429;-81
2023/02/20 14:11:38;;;;;;;2.47;1.40;;;13.80;99.90;;;;;;8163514;29;20027;-82
2023/02/20 14:15:53;;;;;;;2.75;1.42;;;13.80;99.90;;;;;;8156230;29;20031;-82
2023/02/20 14:19:59;;;;;;;2.22;1.38;;;13.90;99.90;;;;;;8168039;29;20091;-81
2023/02/20 14:24:27;;;;;;;3.45;1.70;;;13.80;99.90;;;;;;8157233;29;20020;-82
2023/02/20 14:28:33;;;;;;;3.33;1.60;;;13.80;99.90;;;;;;8169336;29;20027;-81
2023/02/20 14:32:35;;;;;;;2.50;1.25;;;13.80;99.90;;;;;;8166758;29;20024;-81
2023/02/20 14:36:50;;;;;;;2.20;1.30;;;13.80;99.90;;;;;;8162259;29;20042;-81
2023/02/20 14:40:51;;;;;;;3.60;1.30;;;13.80;99.90;;;;;;8171375;29;20030;-81
2023/02/20 14:45:03;;;;;;;1.67;1.10;;;13.70;99.90;;;;;;8171947;29;20382;-81
2023/02/20 14:49:04;;;;;;;2.97;1.38;;;13.80;99.90;;;;;;8169450;29;20453;-81
2023/02/20 14:53:19;;;;;;;2.83;1.13;;;13.90;99.90;;;;;;8169077;29;20042;-79
2023/02/20 14:57:20;;;;;;;2.80;1.50;;;14.50;99.90;;;;;;8167090;29;20027;-81
2023/02/20 15:01:26;;;;;;;1.90;1.33;;;16.10;99.90;;;;;;8165025;29;20028;-80
2023/02/20 15:05:31;;;;;;;2.47;1.35;;;17.70;97.80;;;;;;8157340;29;20552;-80
2023/02/20 15:09:37;;;;;;;2.85;1.70;;;16.90;98.20;;;;;;8158457;29;20027;-80
2023/02/20 15:13:41;;;;;;;1.42;1.20;;;15.50;99.90;;;;;;8158473;29;20031;-80
2023/02/20 15:17:43;;;;;;;3.50;1.50;;;14.40;99.90;;;;;;8154519;29;20050;-80
2023/02/20 15:21:55;;;;;;;2.88;1.38;;;13.80;99.90;;;;;;8152836;29;20593;-80
2023/02/20 15:25:57;;;;;;;1.67;1.13;;;13.50;99.90;;;;;;8150566;29;20114;-81
2023/02/20 15:30:16;;;;;;;2.70;1.25;;;13.20;99.90;;;;;;8153033;29;20027;-79
2023/02/20 15:34:21;;;;;;;1.60;1.20;;;13.10;99.90;;;;;;8152092;29;20393;-80
2023/02/20 15:38:29;;;;;;;1.70;1.20;;;12.90;99.90;;;;;;8160015;29;20510;-80
2023/02/20 15:42:30;;;;;;;4.03;1.23;;;12.70;99.90;;;;;;8157984;29;20019;-79
2023/02/20 15:46:30;;;;;;;2.67;1.48;;;12.60;99.90;;;;;;8154957;29;20027;-81
2023/02/20 15:50:31;;;;;;;2.35;1.20;;;12.60;99.90;;;;;;8154927;29;20024;-79
2023/02/20 15:54:32;;;;;;;2.13;1.30;;;12.50;99.90;;;;;;8149937;29;20166;-80
2023/02/20 15:58:37;;;;;;;3.53;1.42;;;12.40;99.90;;;;;;8151812;29;20028;-78
2023/02/20 16:02:38;;;;;;;2.20;1.40;;;12.20;99.90;;;;;;8148576;29;20056;-80
2023/02/20 16:06:38;;;;;;;1.35;1.02;;;12.00;99.90;;;;;;8142033;29;20035;-80
2023/02/20 16:10:39;;;;;;;2.22;1.13;;;11.80;99.90;;;;;;8147732;29;20027;-80
2023/02/20 16:14:39;;;;;;;4.05;1.38;;;11.70;99.90;;;;;;8154724;29;20042;-80
2023/02/20 16:18:40;;;;;;;3.70;1.63;;;11.20;99.90;;;;;;8152436;29;20786;-80
2023/02/20 16:22:40;;;;;;;2.65;1.35;;;11.30;99.90;;;;;;8155037;29;20059;-80
2023/02/20 16:26:45;;;;;;;3.42;1.73;;;11.00;99.90;;;;;;8151299;29;20749;-79
2023/02/20 16:30:45;;;;;;;2.75;1.70;;;10.70;99.90;;;;;;8143544;29;20027;-80
2023/02/20 16:34:46;;;;;;;3.85;1.40;;;10.40;99.90;;;;;;8148938;29;20131;-79
2023/02/20 16:38:46;;;;;;;3.85;1.85;;;10.20;99.90;;;;;;8155824;29;20054;-80
2023/02/20 16:42:47;;;;;;;2.75;1.80;;;10.00;99.90;;;;;;8163595;29;20561;-81
2023/02/20 16:46:48;;;;;;;5.50;1.88;;;9.60;99.90;;;;;;8161830;29;20090;-80
2023/02/20 16:50:51;;;;;;;3.03;1.40;;;9.40;99.90;;;;;;8140116;29;20036;-78
2023/02/20 16:54:53;;;;;;;3.17;1.73;;;9.30;99.90;;;;;;8136132;29;20043;-80
2023/02/20 16:58:54;;;;;;;5.72;1.80;;;9.00;99.90;;;;;;8156242;29;20448;-79
2023/02/20 17:02:55;;;;;;;5.57;2.30;;;8.60;99.90;;;;;;8144232;29;20028;-80
2023/02/20 17:06:56;;;;;;;3.28;1.75;;;8.20;99.90;;;;;;8150615;29;20650;-79
2023/02/20 17:10:56;;;;;;;4.13;1.63;;;8.00;99.90;;;;;;8157498;29;20122;-80
2023/02/20 17:14:57;;;;;;;2.60;1.40;;;7.70;99.90;;;;;;8158939;29;20036;-80
2023/02/20 17:18:57;;;;;;;2.58;1.42;;;7.30;99.90;;;;;;8165646;29;20032;-80
2023/02/20 17:22:58;;;;;;;4.63;1.95;;;6.80;99.90;;;;;;8160658;29;20834;-81
2023/02/20 17:27:00;;;;;;;3.13;1.60;;;6.80;99.90;;;;;;8167686;29;20032;-81
2023/02/20 17:31:01;;;;;;;3.35;1.80;;;6.80;99.90;;;;;;8172906;29;20048;-81
2023/02/20 17:35:02;;;;;;;2.72;1.65;;;6.60;99.90;;;;;;8161590;29;20028;-81
2023/02/20 17:39:03;;;;;;;2.33;1.38;;;6.50;99.90;;;;;;8155456;29;20060;-81
2023/02/20 17:43:05;;;;;;;2.47;1.77;;;6.40;99.90;;;;;;8149762;29;20043;-80
2023/02/20 17:47:10;;;;;;;2.15;1.63;;;6.30;99.90;;;;;;8147263;29;20413;-80
2023/02/20 17:51:18;;;;;;;2.72;1.60;;;6.20;99.90;;;;;;8150804;29;20453;-79
2023/02/20 17:55:25;;;;;;;8.45;2.10;;;6.10;99.90;;;;;;8165289;29;20095;-79
2023/02/20 17:59:27;;;;;;;2.85;2.00;;;6.00;99.90;;;;;;8153669;29;20059;-81
2023/02/20 18:03:27;;;;;;;3.85;1.98;;;5.90;99.90;;;;;;8135206;29;20520;-80
2023/02/20 18:07:28;;;;;;;7.10;2.67;;;5.90;99.90;;;;;;8146918;29;20125;-80
2023/02/20 18:11:29;;;;;;;3.15;1.85;;;5.80;99.90;;;;;;8153714;29;20524;-80
2023/02/20 18:15:35;;;;;;;4.03;2.00;;;5.60;99.90;;;;;;8151627;29;20055;-81
2023/02/20 18:19:35;;;;;;;3.38;2.10;;;5.30;99.90;;;;;;8152274;29;20040;-80
2023/02/20 18:23:36;;;;;;;4.50;2.70;;;5.20;99.90;;;;;;8160338;29;20534;-82
2023/02/20 18:27:37;;;;;;;5.18;2.90;;;5.00;99.90;;;;;;8158948;28;20023;-81
2023/02/20 18:31:37;;;;;;;7.53;4.10;;;4.90;99.90;;;;;;8159643;29;20023;-81
2023/02/20 18:35:38;;;;;;;10.70;4.50;;;4.80;99.90;;;;;;8160047;29;20086;-80
2023/02/20 18:39:38;;;;;;;13.43;5.72;;;4.70;99.90;;;;;;8155979;29;20021;-80
2023/02/20 18:43:43;;;;;;;13.95;7.10;;;4.60;99.90;;;;;;8145830;29;20020;-81
2023/02/20 18:47:49;;;;;;;12.93;7.03;;;4.50;99.90;;;;;;8153902;29;20532;-82
2023/02/20 18:51:50;;;;;;;13.23;6.30;;;4.50;99.90;;;;;;8149614;29;20028;-81
2023/02/20 18:55:50;;;;;;;10.85;5.78;;;4.30;99.90;;;;;;8142540;29;20036;-80
2023/02/20 18:59:51;;;;;;;10.38;5.25;;;4.20;99.90;;;;;;8144676;29;20028;-80
2023/02/20 19:03:52;;;;;;;15.10;6.43;;;3.90;99.90;;;;;;8145100;29;20020;-81
2023/02/20 19:07:53;;;;;;;11.55;5.38;;;3.90;99.90;;;;;;8164269;29;20024;-80
2023/02/20 19:11:55;;;;;;;12.50;5.85;;;3.80;99.90;;;;;;8151184;29;20028;-81
2023/02/20 19:15:56;;;;;;;11.02;5.53;;;3.70;99.90;;;;;;8149709;29;20031;-81
2023/02/20 19:19:56;;;;;;;17.38;7.90;;;3.80;99.90;;;;;;8146440;29;20441;-80
2023/02/20 19:23:58;;;;;;;10.32;5.38;;;3.80;99.90;;;;;;8157594;29;20513;-82
2023/02/20 19:27:59;;;;;;;16.17;7.00;;;3.80;99.90;;;;;;8154903;29;20024;-82
2023/02/20 19:32:02;;;;;;;13.55;6.93;;;3.70;99.90;;;;;;8154919;29;20035;-82
2023/02/20 19:36:04;;;;;;;16.77;8.95;;;3.60;99.90;;;;;;8156511;29;20040;-81
2023/02/20 19:40:06;;;;;;;14.35;7.45;;;3.60;99.90;;;;;;8152431;29;20176;-81
2023/02/20 19:44:07;;;;;;;10.05;6.57;;;3.50;99.90;;;;;;8171884;29;20107;-81
2023/02/20 19:48:07;;;;;;;11.40;6.25;;;3.40;99.90;;;;;;8162206;29;20032;-81
2023/02/20 19:52:08;;;;;;;9.50;5.35;;;3.40;99.90;;;;;;8158596;29;20042;-81
2023/02/20 19:56:09;;;;;;;16.42;6.40;;;3.20;99.90;;;;;;8169378;29;20119;-81
2023/02/20 20:00:12;;;;;;;9.00;4.53;;;3.40;99.90;;;;;;8157732;29;20035;-81
2023/02/20 20:04:12;;;;;;;11.00;5.32;;;3.30;99.90;;;;;;8154618;29;20115;-81
2023/02/20 20:08:13;;;;;;;13.80;5.90;;;3.20;99.90;;;;;;8164358;29;20027;-82
2023/02/20 20:16:36;;;;;;;11.60;3.50;;;3.20;99.90;;;;;;8164671;29;20042;-81
2023/02/20 20:20:36;;;;;;;10.20;3.30;;;3.10;99.90;;;;;;8151027;29;20079;-81
2023/02/20 20:24:37;;;;;;;11.02;5.03;;;3.10;99.90;;;;;;8152569;29;20028;-81
2023/02/20 20:28:38;;;;;;;15.45;7.82;;;3.30;99.90;;;;;;8147292;29;20056;-81
2023/02/20 20:32:38;;;;;;;10.95;4.55;;;3.30;99.90;;;;;;8156271;29;20058;-81
2023/02/20 20:36:39;;;;;;;7.68;3.83;;;3.30;99.90;;;;;;8160392;29;20024;-80
2023/02/20 20:40:40;;;;;;;6.57;3.67;;;2.90;99.90;;;;;;8163712;29;20122;-82
2023/02/20 20:44:41;;;;;;;7.15;3.42;;;3.00;99.90;;;;;;8162422;29;20030;-81
2023/02/20 20:48:45;;;;;;;10.10;3.72;;;3.00;99.90;;;;;;8161083;29;20036;-81
2023/02/20 20:52:46;;;;;;;7.90;3.42;;;2.80;99.90;;;;;;8161980;29;20385;-81
2023/02/20 20:56:49;;;;;;;6.97;3.80;;;2.50;99.90;;;;;;8157962;29;20027;-81
2023/02/20 21:00:49;;;;;;;8.00;4.75;;;2.50;99.90;;;;;;8163130;29;20126;-81
2023/02/20 21:04:50;;;;;;;9.75;4.05;;;2.60;99.90;;;;;;8166173;29;20051;-81
2023/02/20 21:08:51;;;;;;;11.13;4.00;;;2.50;99.90;;;;;;8162273;29;20055;-81
2023/02/20 21:12:52;;;;;;;9.38;4.35;;;2.30;99.90;;;;;;8163083;29;20036;-81
2023/02/20 21:16:53;;;;;;;8.63;3.95;;;2.10;99.90;;;;;;8163138;29;20028;-81
2023/02/20 21:20:53;;;;;;;6.97;3.30;;;2.00;99.90;;;;;;8168338;29;20035;-80
2023/02/20 21:24:54;;;;;;;9.48;4.22;;;1.90;99.90;;;;;;8169204;29;20024;-81
2023/02/20 21:28:55;;;;;;;10.43;3.22;;;1.70;99.90;;;;;;8165767;29;20120;-81
2023/02/20 21:32:55;;;;;;;6.78;3.03;;;1.60;99.90;;;;;;8161842;29;20500;-81
2023/02/20 21:36:56;;;;;;;6.30;3.47;;;1.60;99.90;;;;;;8168530;29;20489;-81
2023/02/20 21:40:57;;;;;;;7.78;3.85;;;1.70;99.90;;;;;;8168959;29;20039;-81
2023/02/20 21:44:57;;;;;;;5.18;3.03;;;1.60;99.90;;;;;;8167564;29;20027;-81
2023/02/20 21:48:58;;;;;;;7.00;3.60;;;1.60;99.90;;;;;;8155705;29;20035;-81